Merchtem, Belgium
Current Conditions -  °F | °C
As of 8:50 AM on Monday 24 Nov 2014 (Local Time) from EBBR Reporting Station
Few Clouds Few Clouds  
Wind Chill: 43°   Ceiling: Unl
Heat Index: 43°   Visibility: 6mi
Dew Point: 37°   Wind: 2mph
Humidity: 81%   Direction: 300°WNW
Pressure: 30.24"   Gusts: NA
Location:  50.95°N, 4.23°E
Report Text: EBBR 240750Z 30002KT 9999 FEW026 06/03 Q1024 NOSIG
Loading
Personal Weather Stations






























Interactive Weather Map New forecast layout! Learn more

10-Day Weather Forecast

Advertisements
Track Severe Weather on mobile